PWSweather.com
Personal Weather Stations
Station Observations
KNVELKO7
Elko, NV 89801

Elko, NV 89801

Lat: 40.963233, Lon: -115.592836

Elevation: 5230

Station Type: WS-2812

High Low Average
Temperature 76.3°F24.6°C 32.9°F0.5°C 57.1°F13.9°C
Dew Point 42.3°F5.7°C 22.9°F-5.1°C 32.2°F0.1°C
Winds 25.6 mph 41.2 kmh Calm Calm 8.0 mph SE12.9 kmh SE
Wind Gusts 32.0 mph51.5 kmh -- 11.0 mph17.7 kmh
Humidity 71% 23% 42%
Pressure 30.04 in1017.3 mb 29.84 in1010.5 mb -
Precipitation 0.00 in0.0 mm - -
Hour Temp Dew Point Humidity Winds Wind Gusts Pressure Precip Precip Rate Daily Precip Total
12:01 AM 42.7°F5.9°C 25.8°F-3.4°C 51% 0.4 mph 0.6 kmh 0.7 mph1.1 kmh 30.01 in1016.3 mb 0.00 in0.0 mm 0.00 in/hr0.0 mm/hr 0.00 in0.0 mm
12:06 AM 42.3°F5.7°C 24.5°F-4.2°C 49% 0.3 mph 0.5 kmh 0.7 mph1.1 kmh 30.01 in1016.3 mb 0.00 in0.0 mm 0.00 in/hr0.0 mm/hr 0.00 in0.0 mm
12:11 AM 41.9°F5.5°C 24.7°F-4.1°C 50% 1.4 mph 2.3 kmh 2.0 mph3.2 kmh 30.01 in1016.3 mb 0.00 in0.0 mm 0.00 in/hr0.0 mm/hr 0.00 in0.0 mm
12:16 AM 41.9°F5.5°C 25.6°F-3.6°C 52% 0.2 mph NW0.3 kmh NW 2.5 mph4.0 kmh 30.01 in1016.3 mb 0.00 in0.0 mm 0.00 in/hr0.0 mm/hr 0.00 in0.0 mm
12:21 AM 41.9°F5.5°C 25.1°F-3.8°C 51% 1.1 mph 1.8 kmh 2.5 mph4.0 kmh 30.01 in1016.3 mb 0.00 in0.0 mm 0.00 in/hr0.0 mm/hr 0.00 in0.0 mm
12:26 AM 41.4°F5.2°C 24.6°F-4.1°C 51% Calm Calm 2.5 mph4.0 kmh 30.02 in1016.6 mb 0.00 in0.0 mm 0.00 in/hr0.0 mm/hr 0.00 in0.0 mm
12:31 AM 41.0°F5.0°C 24.2°F-4.3°C 51% 0.4 mph ENE0.6 kmh ENE 0.4 mph0.6 kmh 30.02 in1016.6 mb 0.00 in0.0 mm 0.00 in/hr0.0 mm/hr 0.00 in0.0 mm
12:36 AM 40.7°F4.8°C 24.8°F-4.0°C 53% 0.8 mph ESE1.3 kmh ESE 1.8 mph2.9 kmh 30.02 in1016.6 mb 0.00 in0.0 mm 0.00 in/hr0.0 mm/hr 0.00 in0.0 mm
12:41 AM 40.9°F4.9°C 25.4°F-3.7°C 54% 2.5 mph WSW4.0 kmh WSW 2.5 mph4.0 kmh 30.02 in1016.6 mb 0.00 in0.0 mm 0.00 in/hr0.0 mm/hr 0.00 in0.0 mm
12:46 AM 40.7°F4.8°C 24.8°F-4.0°C 53% Calm Calm 2.5 mph4.0 kmh 30.02 in1016.6 mb 0.00 in0.0 mm 0.00 in/hr0.0 mm/hr 0.00 in0.0 mm
12:51 AM 40.3°F4.6°C 24.5°F-4.2°C 53% 0.4 mph NNE0.6 kmh NNE 2.2 mph3.5 kmh 30.02 in1016.6 mb 0.00 in0.0 mm 0.00 in/hr0.0 mm/hr 0.00 in0.0 mm
12:56 AM 40.1°F4.5°C 24.3°F-4.3°C 53% Calm Calm 2.2 mph3.5 kmh 30.02 in1016.6 mb 0.00 in0.0 mm 0.00 in/hr0.0 mm/hr 0.00 in0.0 mm
01:02 AM 40.1°F4.5°C 25.1°F-3.8°C 55% 0.3 mph NE0.5 kmh NE 1.8 mph2.9 kmh 30.02 in1016.6 mb 0.00 in0.0 mm 0.00 in/hr0.0 mm/hr 0.00 in0.0 mm
01:07 AM 40.1°F4.5°C 25.1°F-3.8°C 55% 0.7 mph E1.1 kmh E 1.8 mph2.9 kmh 30.02 in1016.6 mb 0.00 in0.0 mm 0.00 in/hr0.0 mm/hr 0.00 in0.0 mm
01:11 AM 40.1°F4.5°C 25.6°F-3.6°C 56% 0.2 mph 0.3 kmh 1.1 mph1.8 kmh 30.02 in1016.6 mb 0.00 in0.0 mm 0.00 in/hr0.0 mm/hr 0.00 in0.0 mm
01:16 AM 39.8°F4.3°C 24.9°F-3.9°C 55% 0.4 mph NE0.6 kmh NE 0.7 mph1.1 kmh 30.02 in1016.6 mb 0.00 in0.0 mm 0.00 in/hr0.0 mm/hr 0.00 in0.0 mm
01:21 AM 39.4°F4.1°C 24.5°F-4.2°C 55% 0.2 mph NNW0.3 kmh NNW 5.1 mph8.2 kmh 30.02 in1016.6 mb 0.00 in0.0 mm 0.00 in/hr0.0 mm/hr 0.00 in0.0 mm
01:26 AM 39.1°F3.9°C 24.6°F-4.1°C 56% 2.3 mph E3.7 kmh E 5.1 mph8.2 kmh 30.02 in1016.6 mb 0.00 in0.0 mm 0.00 in/hr0.0 mm/hr 0.00 in0.0 mm
01:31 AM 38.9°F3.8°C 24.8°F-4.0°C 57% 1.1 mph SE1.8 kmh SE 3.6 mph5.8 kmh 30.02 in1016.6 mb 0.00 in0.0 mm 0.00 in/hr0.0 mm/hr 0.00 in0.0 mm
01:36 AM 38.9°F3.8°C 25.3°F-3.7°C 58% 1.1 mph ESE1.8 kmh ESE 3.6 mph5.8 kmh 30.02 in1016.6 mb 0.00 in0.0 mm 0.00 in/hr0.0 mm/hr 0.00 in0.0 mm
01:41 AM 38.5°F3.6°C 24.9°F-3.9°C 58% Calm Calm 1.8 mph2.9 kmh 30.02 in1016.6 mb 0.00 in0.0 mm 0.00 in/hr0.0 mm/hr 0.00 in0.0 mm
01:46 AM 38.5°F3.6°C 24.9°F-3.9°C 58% 1.1 mph NE1.8 kmh NE 4.0 mph6.4 kmh 30.02 in1016.6 mb 0.00 in0.0 mm 0.00 in/hr0.0 mm/hr 0.00 in0.0 mm
01:51 AM 38.3°F3.5°C 24.4°F-4.2°C 57% 2.6 mph N4.2 kmh N 4.0 mph6.4 kmh 30.02 in1016.6 mb 0.00 in0.0 mm 0.00 in/hr0.0 mm/hr 0.00 in0.0 mm
01:56 AM 38.3°F3.5°C 24.8°F-4.0°C 58% 3.3 mph NNE5.3 kmh NNE 4.0 mph6.4 kmh 30.02 in1016.6 mb 0.00 in0.0 mm 0.00 in/hr0.0 mm/hr 0.00 in0.0 mm
02:02 AM 38.0°F3.3°C 24.5°F-4.2°C 58% 2.2 mph 3.5 kmh 4.0 mph6.4 kmh 30.02 in1016.6 mb 0.00 in0.0 mm 0.00 in/hr0.0 mm/hr 0.00 in0.0 mm
02:07 AM 37.6°F3.1°C 24.1°F-4.4°C 58% 3.2 mph N5.1 kmh N 4.5 mph7.2 kmh 30.02 in1016.6 mb 0.00 in0.0 mm 0.00 in/hr0.0 mm/hr 0.00 in0.0 mm
02:12 AM 37.8°F3.2°C 24.8°F-4.0°C 59% 2.3 mph NNE3.7 kmh NNE 4.5 mph7.2 kmh 30.02 in1016.6 mb 0.00 in0.0 mm 0.00 in/hr0.0 mm/hr 0.00 in0.0 mm
02:17 AM 38.2°F3.4°C 25.0°F-3.9°C 59% 1.6 mph NNE2.6 kmh NNE 3.1 mph5.0 kmh 30.02 in1016.6 mb 0.00 in0.0 mm 0.00 in/hr0.0 mm/hr 0.00 in0.0 mm
02:22 AM 38.0°F3.3°C 25.3°F-3.7°C 60% Calm Calm 1.6 mph2.6 kmh 30.02 in1016.6 mb 0.00 in0.0 mm 0.00 in/hr0.0 mm/hr 0.00 in0.0 mm
02:27 AM 38.0°F3.3°C 25.3°F-3.7°C 60% 0.2 mph NE0.3 kmh NE 1.6 mph2.6 kmh 30.02 in1016.6 mb 0.00 in0.0 mm 0.00 in/hr0.0 mm/hr 0.00 in0.0 mm
02:32 AM 37.8°F3.2°C 25.2°F-3.8°C 60% 1.3 mph NNW2.1 kmh NNW 1.8 mph2.9 kmh 30.02 in1016.6 mb 0.00 in0.0 mm 0.00 in/hr0.0 mm/hr 0.00 in0.0 mm
02:37 AM 37.4°F3.0°C 24.8°F-4.0°C 60% 0.2 mph NNE0.3 kmh NNE 1.8 mph2.9 kmh 30.02 in1016.6 mb 0.00 in0.0 mm 0.00 in/hr0.0 mm/hr 0.00 in0.0 mm
02:42 AM 37.4°F3.0°C 24.8°F-4.0°C 60% 0.2 mph 0.3 kmh 1.8 mph2.9 kmh 30.02 in1016.6 mb 0.00 in0.0 mm 0.00 in/hr0.0 mm/hr 0.00 in0.0 mm
02:46 AM 37.3°F2.9°C 24.7°F-4.1°C 60% 0.2 mph 0.3 kmh 1.8 mph2.9 kmh 30.02 in1016.6 mb 0.00 in0.0 mm 0.00 in/hr0.0 mm/hr 0.00 in0.0 mm
02:51 AM 37.1°F2.8°C 24.5°F-4.2°C 60% 2.5 mph 4.0 kmh 2.5 mph4.0 kmh 30.02 in1016.6 mb 0.00 in0.0 mm 0.00 in/hr0.0 mm/hr 0.00 in0.0 mm
02:56 AM 37.1°F2.8°C 24.5°F-4.2°C 60% 1.6 mph N2.6 kmh N 2.9 mph4.7 kmh 30.02 in1016.6 mb 0.00 in0.0 mm 0.00 in/hr0.0 mm/hr 0.00 in0.0 mm
03:02 AM 37.3°F2.9°C 24.7°F-4.1°C 60% 0.8 mph NE1.3 kmh NE 2.9 mph4.7 kmh 30.02 in1016.6 mb 0.00 in0.0 mm 0.00 in/hr0.0 mm/hr 0.00 in0.0 mm
03:07 AM 37.4°F3.0°C 25.2°F-3.8°C 61% 2.5 mph ENE4.0 kmh ENE 3.8 mph6.1 kmh 30.02 in1016.6 mb 0.00 in0.0 mm 0.00 in/hr0.0 mm/hr 0.00 in0.0 mm
03:12 AM 37.6°F3.1°C 25.4°F-3.7°C 61% 1.6 mph 2.6 kmh 3.8 mph6.1 kmh 30.02 in1016.6 mb 0.00 in0.0 mm 0.00 in/hr0.0 mm/hr 0.00 in0.0 mm
03:17 AM 37.8°F3.2°C 25.9°F-3.4°C 62% 1.6 mph SE2.6 kmh SE 6.5 mph10.5 kmh 30.02 in1016.6 mb 0.00 in0.0 mm 0.00 in/hr0.0 mm/hr 0.00 in0.0 mm
03:22 AM 37.8°F3.2°C 25.9°F-3.4°C 62% 1.9 mph NNE3.1 kmh NNE 6.9 mph11.1 kmh 30.02 in1016.6 mb 0.00 in0.0 mm 0.00 in/hr0.0 mm/hr 0.00 in0.0 mm
03:27 AM 38.0°F3.3°C 26.5°F-3.1°C 63% 0.4 mph NNW0.6 kmh NNW 6.9 mph11.1 kmh 30.02 in1016.6 mb 0.00 in0.0 mm 0.00 in/hr0.0 mm/hr 0.00 in0.0 mm
03:32 AM 37.8°F3.2°C 25.9°F-3.4°C 62% 1.9 mph 3.1 kmh 3.4 mph5.5 kmh 30.02 in1016.6 mb 0.00 in0.0 mm 0.00 in/hr0.0 mm/hr 0.00 in0.0 mm
03:37 AM 37.8°F3.2°C 25.9°F-3.4°C 62% 3.3 mph NE5.3 kmh NE 5.4 mph8.7 kmh 30.02 in1016.6 mb 0.00 in0.0 mm 0.00 in/hr0.0 mm/hr 0.00 in0.0 mm
03:42 AM 37.8°F3.2°C 25.9°F-3.4°C 62% 3.1 mph N5.0 kmh N 5.4 mph8.7 kmh 30.02 in1016.6 mb 0.00 in0.0 mm 0.00 in/hr0.0 mm/hr 0.00 in0.0 mm
03:47 AM 37.4°F3.0°C 25.2°F-3.8°C 61% 1.9 mph NNE3.1 kmh NNE 4.3 mph6.9 kmh 30.02 in1016.6 mb 0.00 in0.0 mm 0.00 in/hr0.0 mm/hr 0.00 in0.0 mm
03:52 AM 37.1°F2.8°C 24.9°F-3.9°C 61% 4.8 mph NE7.7 kmh NE 5.1 mph8.2 kmh 30.02 in1016.6 mb 0.00 in0.0 mm 0.00 in/hr0.0 mm/hr 0.00 in0.0 mm
03:57 AM 37.1°F2.8°C 25.3°F-3.7°C 62% 5.6 mph ENE9.0 kmh ENE 6.9 mph11.1 kmh 30.02 in1016.6 mb 0.00 in0.0 mm 0.00 in/hr0.0 mm/hr 0.00 in0.0 mm
04:02 AM 37.1°F2.8°C 25.3°F-3.7°C 62% 4.6 mph ENE7.4 kmh ENE 6.9 mph11.1 kmh 30.02 in1016.6 mb 0.00 in0.0 mm 0.00 in/hr0.0 mm/hr 0.00 in0.0 mm
04:07 AM 37.1°F2.8°C 25.7°F-3.5°C 63% 4.7 mph ENE7.6 kmh ENE 6.9 mph11.1 kmh 30.02 in1016.6 mb 0.00 in0.0 mm 0.00 in/hr0.0 mm/hr 0.00 in0.0 mm
04:12 AM 37.1°F2.8°C 25.3°F-3.7°C 62% Calm Calm 6.9 mph11.1 kmh 30.02 in1016.6 mb 0.00 in0.0 mm 0.00 in/hr0.0 mm/hr 0.00 in0.0 mm
04:17 AM 36.9°F2.7°C 25.1°F-3.8°C 62% 1.9 mph WSW3.1 kmh WSW 5.8 mph9.3 kmh 30.02 in1016.6 mb 0.00 in0.0 mm 0.00 in/hr0.0 mm/hr 0.00 in0.0 mm
04:22 AM 36.7°F2.6°C 24.9°F-3.9°C 62% 2.1 mph NE3.4 kmh NE 5.4 mph8.7 kmh 30.02 in1016.6 mb 0.00 in0.0 mm 0.00 in/hr0.0 mm/hr 0.00 in0.0 mm
04:27 AM 36.4°F2.4°C 24.6°F-4.1°C 62% 0.8 mph NE1.3 kmh NE 4.9 mph7.9 kmh 30.02 in1016.6 mb 0.00 in0.0 mm 0.00 in/hr0.0 mm/hr 0.00 in0.0 mm
04:32 AM 36.0°F2.2°C 24.3°F-4.3°C 62% 2.3 mph SW3.7 kmh SW 4.0 mph6.4 kmh 30.02 in1016.6 mb 0.00 in0.0 mm 0.00 in/hr0.0 mm/hr 0.00 in0.0 mm
04:37 AM 35.6°F2.0°C 23.9°F-4.5°C 62% Calm Calm 2.7 mph4.3 kmh 30.02 in1016.6 mb 0.00 in0.0 mm 0.00 in/hr0.0 mm/hr 0.00 in0.0 mm
04:42 AM 35.3°F1.8°C 23.6°F-4.7°C 62% Calm Calm -- 30.02 in1016.6 mb 0.00 in0.0 mm 0.00 in/hr0.0 mm/hr 0.00 in0.0 mm
04:47 AM 35.1°F1.7°C 23.4°F-4.8°C 62% Calm Calm -- 30.02 in1016.6 mb 0.00 in0.0 mm 0.00 in/hr0.0 mm/hr 0.00 in0.0 mm
04:52 AM 34.9°F1.6°C 23.2°F-4.9°C 62% 1.5 mph SSE2.4 kmh SSE 1.8 mph2.9 kmh 30.02 in1016.6 mb 0.00 in0.0 mm 0.00 in/hr0.0 mm/hr 0.00 in0.0 mm
04:57 AM 34.7°F1.5°C 23.0°F-5.0°C 62% 0.4 mph 0.6 kmh 1.8 mph2.9 kmh 30.02 in1016.6 mb 0.00 in0.0 mm 0.00 in/hr0.0 mm/hr 0.00 in0.0 mm
05:03 AM 34.4°F1.3°C 23.0°F-5.0°C 63% 1.8 mph SSE2.9 kmh SSE 1.8 mph2.9 kmh 30.02 in1016.6 mb 0.00 in0.0 mm 0.00 in/hr0.0 mm/hr 0.00 in0.0 mm
05:07 AM 34.2°F1.2°C 22.9°F-5.1°C 63% Calm Calm 1.8 mph2.9 kmh 30.02 in1016.6 mb 0.00 in0.0 mm 0.00 in/hr0.0 mm/hr 0.00 in0.0 mm
05:12 AM 34.2°F1.2°C 23.2°F-4.9°C 64% 0.7 mph ESE1.1 kmh ESE 1.8 mph2.9 kmh 30.02 in1016.6 mb 0.00 in0.0 mm 0.00 in/hr0.0 mm/hr 0.00 in0.0 mm
05:17 AM 34.2°F1.2°C 23.2°F-4.9°C 64% 1.8 mph ESE2.9 kmh ESE 1.8 mph2.9 kmh 30.02 in1016.6 mb 0.00 in0.0 mm 0.00 in/hr0.0 mm/hr 0.00 in0.0 mm
05:22 AM 34.0°F1.1°C 23.4°F-4.8°C 65% 0.6 mph ESE1.0 kmh ESE 1.8 mph2.9 kmh 30.02 in1016.6 mb 0.00 in0.0 mm 0.00 in/hr0.0 mm/hr 0.00 in0.0 mm
05:27 AM 33.8°F1.0°C 22.9°F-5.1°C 64% 0.3 mph NNE0.5 kmh NNE 0.7 mph1.1 kmh 30.02 in1016.6 mb 0.00 in0.0 mm 0.00 in/hr0.0 mm/hr 0.00 in0.0 mm
05:32 AM 33.8°F1.0°C 22.9°F-5.1°C 64% Calm Calm 0.4 mph0.6 kmh 30.02 in1016.6 mb 0.00 in0.0 mm 0.00 in/hr0.0 mm/hr 0.00 in0.0 mm
05:37 AM 33.8°F1.0°C 22.9°F-5.1°C 64% 0.4 mph 0.6 kmh 3.4 mph5.5 kmh 30.02 in1016.6 mb 0.00 in0.0 mm 0.00 in/hr0.0 mm/hr 0.00 in0.0 mm
05:42 AM 33.8°F1.0°C 23.2°F-4.9°C 65% 1.1 mph 1.8 kmh 3.4 mph5.5 kmh 30.02 in1016.6 mb 0.00 in0.0 mm 0.00 in/hr0.0 mm/hr 0.00 in0.0 mm
05:47 AM 33.7°F0.9°C 23.0°F-5.0°C 65% 5.8 mph N9.3 kmh N 6.7 mph10.8 kmh 30.02 in1016.6 mb 0.00 in0.0 mm 0.00 in/hr0.0 mm/hr 0.00 in0.0 mm
05:52 AM 33.8°F1.0°C 23.6°F-4.7°C 66% 3.0 mph NE4.8 kmh NE 6.7 mph10.8 kmh 30.02 in1016.6 mb 0.00 in0.0 mm 0.00 in/hr0.0 mm/hr 0.00 in0.0 mm
05:57 AM 33.8°F1.0°C 23.6°F-4.7°C 66% 0.2 mph NW0.3 kmh NW 6.0 mph9.7 kmh 30.02 in1016.6 mb 0.00 in0.0 mm 0.00 in/hr0.0 mm/hr 0.00 in0.0 mm
06:03 AM 33.7°F0.9°C 23.0°F-5.0°C 65% 2.1 mph NE3.4 kmh NE 3.4 mph5.5 kmh 30.02 in1016.6 mb 0.00 in0.0 mm 0.00 in/hr0.0 mm/hr 0.00 in0.0 mm
06:08 AM 33.5°F0.8°C 23.2°F-4.9°C 66% 4.4 mph NE7.1 kmh NE 4.5 mph7.2 kmh 30.02 in1016.6 mb 0.00 in0.0 mm 0.00 in/hr0.0 mm/hr 0.00 in0.0 mm
06:13 AM 33.5°F0.8°C 23.6°F-4.7°C 67% 5.1 mph NE8.2 kmh NE 5.4 mph8.7 kmh 30.02 in1016.6 mb 0.00 in0.0 mm 0.00 in/hr0.0 mm/hr 0.00 in0.0 mm
06:18 AM 34.0°F1.1°C 24.8°F-4.0°C 69% 4.5 mph NE7.2 kmh NE 5.4 mph8.7 kmh 30.02 in1016.6 mb 0.00 in0.0 mm 0.00 in/hr0.0 mm/hr 0.00 in0.0 mm
06:23 AM 34.7°F1.5°C 25.6°F-3.6°C 69% 4.3 mph ENE6.9 kmh ENE 5.8 mph9.3 kmh 30.02 in1016.6 mb 0.00 in0.0 mm 0.00 in/hr0.0 mm/hr 0.00 in0.0 mm
06:28 AM 35.1°F1.7°C 25.6°F-3.6°C 68% 2.9 mph NE4.7 kmh NE 5.8 mph9.3 kmh 30.02 in1016.6 mb 0.00 in0.0 mm 0.00 in/hr0.0 mm/hr 0.00 in0.0 mm
06:32 AM 35.3°F1.8°C 25.7°F-3.5°C 68% 1.9 mph N3.1 kmh N 4.7 mph7.6 kmh 30.02 in1016.6 mb 0.00 in0.0 mm 0.00 in/hr0.0 mm/hr 0.00 in0.0 mm
06:37 AM 34.9°F1.6°C 25.0°F-3.9°C 67% 2.9 mph NNE4.7 kmh NNE 4.9 mph7.9 kmh 30.02 in1016.6 mb 0.00 in0.0 mm 0.00 in/hr0.0 mm/hr 0.00 in0.0 mm
06:42 AM 34.9°F1.6°C 25.0°F-3.9°C 67% 2.5 mph 4.0 kmh 4.9 mph7.9 kmh 30.02 in1016.6 mb 0.00 in0.0 mm 0.00 in/hr0.0 mm/hr 0.00 in0.0 mm
06:47 AM 34.4°F1.3°C 24.5°F-4.2°C 67% 1.1 mph N1.8 kmh N 4.7 mph7.6 kmh 30.02 in1016.6 mb 0.00 in0.0 mm 0.00 in/hr0.0 mm/hr 0.00 in0.0 mm
06:52 AM 34.2°F1.2°C 24.3°F-4.3°C 67% 2.2 mph NE3.5 kmh NE 2.5 mph4.0 kmh 30.02 in1016.6 mb 0.00 in0.0 mm 0.00 in/hr0.0 mm/hr 0.00 in0.0 mm
06:57 AM 33.8°F1.0°C 23.9°F-4.5°C 67% 1.2 mph 1.9 kmh 3.4 mph5.5 kmh 30.02 in1016.6 mb 0.00 in0.0 mm 0.00 in/hr0.0 mm/hr 0.00 in0.0 mm
07:03 AM 33.5°F0.8°C 23.6°F-4.7°C 67% 0.7 mph NNE1.1 kmh NNE 3.4 mph5.5 kmh 30.02 in1016.6 mb 0.00 in0.0 mm 0.00 in/hr0.0 mm/hr 0.00 in0.0 mm
07:08 AM 33.1°F0.6°C 23.3°F-4.8°C 67% 0.7 mph NNW1.1 kmh NNW 2.5 mph4.0 kmh 30.02 in1016.6 mb 0.00 in0.0 mm 0.00 in/hr0.0 mm/hr 0.00 in0.0 mm
07:13 AM 33.1°F0.6°C 23.7°F-4.6°C 68% 1.5 mph ENE2.4 kmh ENE 2.0 mph3.2 kmh 30.02 in1016.6 mb 0.00 in0.0 mm 0.00 in/hr0.0 mm/hr 0.00 in0.0 mm
07:18 AM 33.1°F0.6°C 24.0°F-4.4°C 69% 0.2 mph ENE0.3 kmh ENE 2.0 mph3.2 kmh 30.02 in1016.6 mb 0.00 in0.0 mm 0.00 in/hr0.0 mm/hr 0.00 in0.0 mm
07:23 AM 32.9°F0.5°C 23.9°F-4.5°C 69% Calm Calm 1.8 mph2.9 kmh 30.02 in1016.6 mb 0.00 in0.0 mm 0.00 in/hr0.0 mm/hr 0.00 in0.0 mm
07:28 AM 32.9°F0.5°C 23.5°F-4.7°C 68% 1.1 mph 1.8 kmh 1.1 mph1.8 kmh 30.02 in1016.6 mb 0.00 in0.0 mm 0.00 in/hr0.0 mm/hr 0.00 in0.0 mm
07:33 AM 33.1°F0.6°C 24.0°F-4.4°C 69% Calm Calm 1.1 mph1.8 kmh 30.02 in1016.6 mb 0.00 in0.0 mm 0.00 in/hr0.0 mm/hr 0.00 in0.0 mm
07:38 AM 33.3°F0.7°C 24.2°F-4.3°C 69% Calm Calm 1.8 mph2.9 kmh 30.03 in1016.9 mb 0.00 in0.0 mm 0.00 in/hr0.0 mm/hr 0.00 in0.0 mm
07:43 AM 33.5°F0.8°C 24.7°F-4.1°C 70% 2.4 mph E3.9 kmh E 3.1 mph5.0 kmh 30.02 in1016.6 mb 0.00 in0.0 mm 0.00 in/hr0.0 mm/hr 0.00 in0.0 mm
07:48 AM 34.4°F1.3°C 25.9°F-3.4°C 71% Calm Calm 4.0 mph6.4 kmh 30.03 in1016.9 mb 0.00 in0.0 mm 0.00 in/hr0.0 mm/hr 0.00 in0.0 mm
07:53 AM 34.9°F1.6°C 26.1°F-3.3°C 70% Calm Calm 4.0 mph6.4 kmh 30.03 in1016.9 mb 0.00 in0.0 mm 0.00 in/hr0.0 mm/hr 0.00 in0.0 mm
07:58 AM 35.6°F2.0°C 26.8°F-2.9°C 70% 0.2 mph ESE0.3 kmh ESE 0.2 mph0.3 kmh 30.03 in1016.9 mb 0.00 in0.0 mm 0.00 in/hr0.0 mm/hr 0.00 in0.0 mm
08:03 AM 36.4°F2.4°C 27.5°F-2.5°C 70% 0.7 mph E1.1 kmh E 0.7 mph1.1 kmh 30.03 in1016.9 mb 0.00 in0.0 mm 0.00 in/hr0.0 mm/hr 0.00 in0.0 mm
08:08 AM 37.3°F2.9°C 28.1°F-2.2°C 69% 0.2 mph NNE0.3 kmh NNE 0.7 mph1.1 kmh 30.03 in1016.9 mb 0.00 in0.0 mm 0.00 in/hr0.0 mm/hr 0.00 in0.0 mm
08:13 AM 38.2°F3.4°C 28.5°F-1.9°C 68% 1.4 mph NE2.3 kmh NE 1.6 mph2.6 kmh 30.04 in1017.3 mb 0.00 in0.0 mm 0.00 in/hr0.0 mm/hr 0.00 in0.0 mm
08:18 AM 39.2°F4.0°C 29.1°F-1.6°C 67% Calm Calm 2.0 mph3.2 kmh 30.04 in1017.3 mb 0.00 in0.0 mm 0.00 in/hr0.0 mm/hr 0.00 in0.0 mm
08:23 AM 40.1°F4.5°C 30.0°F-1.1°C 67% 0.3 mph ESE0.5 kmh ESE 2.0 mph3.2 kmh 30.04 in1017.3 mb 0.00 in0.0 mm 0.00 in/hr0.0 mm/hr 0.00 in0.0 mm
08:28 AM 41.0°F5.0°C 30.9°F-0.6°C 67% 1.5 mph E2.4 kmh E 1.8 mph2.9 kmh 30.04 in1017.3 mb 0.00 in0.0 mm 0.00 in/hr0.0 mm/hr 0.00 in0.0 mm
08:33 AM 42.1°F5.6°C 31.1°F-0.5°C 65% 1.8 mph NNE2.9 kmh NNE 2.5 mph4.0 kmh 30.04 in1017.3 mb 0.00 in0.0 mm 0.00 in/hr0.0 mm/hr 0.00 in0.0 mm
08:38 AM 43.2°F6.2°C 31.8°F-0.1°C 64% 1.4 mph ENE2.3 kmh ENE 2.5 mph4.0 kmh 30.04 in1017.3 mb 0.00 in0.0 mm 0.00 in/hr0.0 mm/hr 0.00 in0.0 mm
08:43 AM 44.1°F6.7°C 32.3°F0.2°C 63% 2.6 mph NE4.2 kmh NE 2.9 mph4.7 kmh 30.04 in1017.3 mb 0.00 in0.0 mm 0.00 in/hr0.0 mm/hr 0.00 in0.0 mm
08:48 AM 45.0°F7.2°C 32.4°F0.2°C 61% 1.5 mph ENE2.4 kmh ENE 4.3 mph6.9 kmh 30.04 in1017.3 mb 0.00 in0.0 mm 0.00 in/hr0.0 mm/hr 0.00 in0.0 mm
08:53 AM 45.7°F7.6°C 31.8°F-0.1°C 58% 2.5 mph ENE4.0 kmh ENE 4.5 mph7.2 kmh 30.04 in1017.3 mb 0.00 in0.0 mm 0.00 in/hr0.0 mm/hr 0.00 in0.0 mm
08:58 AM 46.6°F8.1°C 32.6°F0.3°C 58% 1.9 mph NE3.1 kmh NE 4.5 mph7.2 kmh 30.04 in1017.3 mb 0.00 in0.0 mm 0.00 in/hr0.0 mm/hr 0.00 in0.0 mm
09:03 AM 47.2°F8.4°C 33.1°F0.6°C 58% 2.3 mph E3.7 kmh E 3.4 mph5.5 kmh 30.04 in1017.3 mb 0.00 in0.0 mm 0.00 in/hr0.0 mm/hr 0.00 in0.0 mm
09:08 AM 47.9°F8.8°C 33.4°F0.8°C 57% 1.2 mph E1.9 kmh E 2.9 mph4.7 kmh 30.04 in1017.3 mb 0.00 in0.0 mm 0.00 in/hr0.0 mm/hr 0.00 in0.0 mm
09:13 AM 48.6°F9.2°C 33.6°F0.9°C 56% 2.3 mph NE3.7 kmh NE 3.4 mph5.5 kmh 30.04 in1017.3 mb 0.00 in0.0 mm 0.00 in/hr0.0 mm/hr 0.00 in0.0 mm
09:18 AM 49.3°F9.6°C 33.8°F1.0°C 55% 2.3 mph E3.7 kmh E 3.4 mph5.5 kmh 30.04 in1017.3 mb 0.00 in0.0 mm 0.00 in/hr0.0 mm/hr 0.00 in0.0 mm
09:24 AM 50.4°F10.2°C 34.4°F1.3°C 54% 1.4 mph NE2.3 kmh NE 2.5 mph4.0 kmh 30.04 in1017.3 mb 0.00 in0.0 mm 0.00 in/hr0.0 mm/hr 0.00 in0.0 mm
09:29 AM 51.1°F10.6°C 34.1°F1.2°C 52% 2.1 mph NE3.4 kmh NE 4.0 mph6.4 kmh 30.04 in1017.3 mb 0.00 in0.0 mm 0.00 in/hr0.0 mm/hr 0.00 in0.0 mm
09:34 AM 51.8°F11.0°C 34.3°F1.3°C 51% 3.3 mph NNE5.3 kmh NNE 4.0 mph6.4 kmh 30.04 in1017.3 mb 0.00 in0.0 mm 0.00 in/hr0.0 mm/hr 0.00 in0.0 mm
09:39 AM 52.4°F11.3°C 33.8°F1.0°C 49% 3.0 mph NE4.8 kmh NE 4.0 mph6.4 kmh 30.04 in1017.3 mb 0.00 in0.0 mm 0.00 in/hr0.0 mm/hr 0.00 in0.0 mm
09:44 AM 53.1°F11.7°C 34.4°F1.3°C 49% 2.0 mph NNE3.2 kmh NNE 4.0 mph6.4 kmh 30.04 in1017.3 mb 0.00 in0.0 mm 0.00 in/hr0.0 mm/hr 0.00 in0.0 mm
09:49 AM 54.0°F12.2°C 34.7°F1.5°C 48% 1.7 mph NE2.7 kmh NE 4.0 mph6.4 kmh 30.03 in1016.9 mb 0.00 in0.0 mm 0.00 in/hr0.0 mm/hr 0.00 in0.0 mm
09:54 AM 54.5°F12.5°C 35.7°F2.1°C 49% 2.4 mph E3.9 kmh E 3.4 mph5.5 kmh 30.03 in1016.9 mb 0.00 in0.0 mm 0.00 in/hr0.0 mm/hr 0.00 in0.0 mm
09:59 AM 55.4°F13.0°C 35.4°F1.9°C 47% 1.0 mph NE1.6 kmh NE 4.9 mph7.9 kmh 30.03 in1016.9 mb 0.00 in0.0 mm 0.00 in/hr0.0 mm/hr 0.00 in0.0 mm
10:04 AM 56.0°F13.3°C 35.9°F2.2°C 47% 2.2 mph N3.5 kmh N 4.9 mph7.9 kmh 30.03 in1016.9 mb 0.00 in0.0 mm 0.00 in/hr0.0 mm/hr 0.00 in0.0 mm
10:09 AM 56.5°F13.6°C 35.9°F2.2°C 46% 6.1 mph NE9.8 kmh NE 7.2 mph11.6 kmh 30.03 in1016.9 mb 0.00 in0.0 mm 0.00 in/hr0.0 mm/hr 0.00 in0.0 mm
10:14 AM 57.2°F14.0°C 36.0°F2.2°C 45% 5.1 mph ENE8.2 kmh ENE 7.2 mph11.6 kmh 30.02 in1016.6 mb 0.00 in0.0 mm 0.00 in/hr0.0 mm/hr 0.00 in0.0 mm
10:19 AM 58.0°F14.4°C 36.6°F2.6°C 45% 2.1 mph E3.4 kmh E 6.5 mph10.5 kmh 30.03 in1016.9 mb 0.00 in0.0 mm 0.00 in/hr0.0 mm/hr 0.00 in0.0 mm
10:24 AM 58.9°F14.9°C 37.4°F3.0°C 45% 2.9 mph E4.7 kmh E 5.8 mph9.3 kmh 30.02 in1016.6 mb 0.00 in0.0 mm 0.00 in/hr0.0 mm/hr 0.00 in0.0 mm
10:29 AM 59.8°F15.4°C 38.3°F3.5°C 45% 2.5 mph SE4.0 kmh SE 4.0 mph6.4 kmh 30.02 in1016.6 mb 0.00 in0.0 mm 0.00 in/hr0.0 mm/hr 0.00 in0.0 mm
10:34 AM 60.5°F15.8°C 38.9°F3.8°C 45% 3.5 mph ESE5.6 kmh ESE 4.0 mph6.4 kmh 30.02 in1016.6 mb 0.00 in0.0 mm 0.00 in/hr0.0 mm/hr 0.00 in0.0 mm
10:39 AM 61.2°F16.2°C 38.4°F3.6°C 43% 2.3 mph SE3.7 kmh SE 4.7 mph7.6 kmh 30.02 in1016.6 mb 0.00 in0.0 mm 0.00 in/hr0.0 mm/hr 0.00 in0.0 mm
10:44 AM 62.1°F16.7°C 38.6°F3.7°C 42% 3.6 mph ESE5.8 kmh ESE 4.9 mph7.9 kmh 30.01 in1016.3 mb 0.00 in0.0 mm 0.00 in/hr0.0 mm/hr 0.00 in0.0 mm
10:49 AM 62.8°F17.1°C 39.3°F4.1°C 42% 4.4 mph E7.1 kmh E 5.4 mph8.7 kmh 30.01 in1016.3 mb 0.00 in0.0 mm 0.00 in/hr0.0 mm/hr 0.00 in0.0 mm
10:54 AM 63.4°F17.4°C 39.3°F4.1°C 41% 3.1 mph ESE5.0 kmh ESE 5.4 mph8.7 kmh 30.01 in1016.3 mb 0.00 in0.0 mm 0.00 in/hr0.0 mm/hr 0.00 in0.0 mm
11:00 AM 64.3°F17.9°C 40.1°F4.5°C 41% 3.1 mph NE5.0 kmh NE 4.5 mph7.2 kmh 30.01 in1016.3 mb 0.00 in0.0 mm 0.00 in/hr0.0 mm/hr 0.00 in0.0 mm
11:05 AM 64.4°F18.0°C 38.2°F3.4°C 38% 2.7 mph ESE4.3 kmh ESE 6.0 mph9.7 kmh 30.01 in1016.3 mb 0.00 in0.0 mm 0.00 in/hr0.0 mm/hr 0.00 in0.0 mm
11:10 AM 65.2°F18.4°C 39.5°F4.2°C 39% 1.4 mph S2.3 kmh S 6.0 mph9.7 kmh 30.01 in1016.3 mb 0.00 in0.0 mm 0.00 in/hr0.0 mm/hr 0.00 in0.0 mm
11:15 AM 66.2°F19.0°C 40.5°F4.7°C 39% 1.3 mph SE2.1 kmh SE 3.8 mph6.1 kmh 30.00 in1015.9 mb 0.00 in0.0 mm 0.00 in/hr0.0 mm/hr 0.00 in0.0 mm
11:20 AM 67.3°F19.6°C 40.8°F4.9°C 38% 0.7 mph WSW1.1 kmh WSW 3.8 mph6.1 kmh 30.00 in1015.9 mb 0.00 in0.0 mm 0.00 in/hr0.0 mm/hr 0.00 in0.0 mm
11:25 AM 68.2°F20.1°C 42.3°F5.7°C 39% 0.3 mph E0.5 kmh E 2.9 mph4.7 kmh 30.00 in1015.9 mb 0.00 in0.0 mm 0.00 in/hr0.0 mm/hr 0.00 in0.0 mm
11:30 AM 68.9°F20.5°C 41.4°F5.2°C 37% 1.5 mph ENE2.4 kmh ENE 1.8 mph2.9 kmh 29.99 in1015.6 mb 0.00 in0.0 mm 0.00 in/hr0.0 mm/hr 0.00 in0.0 mm
11:35 AM 69.5°F20.8°C 42.0°F5.6°C 37% 1.5 mph SW2.4 kmh SW 1.8 mph2.9 kmh 29.99 in1015.6 mb 0.00 in0.0 mm 0.00 in/hr0.0 mm/hr 0.00 in0.0 mm
11:40 AM 69.5°F20.8°C 40.4°F4.7°C 35% 1.9 mph N3.1 kmh N 3.8 mph6.1 kmh 29.99 in1015.6 mb 0.00 in0.0 mm 0.00 in/hr0.0 mm/hr 0.00 in0.0 mm
11:45 AM 69.7°F20.9°C 39.9°F4.4°C 34% 2.5 mph NNW4.0 kmh NNW 3.8 mph6.1 kmh 29.99 in1015.6 mb 0.00 in0.0 mm 0.00 in/hr0.0 mm/hr 0.00 in0.0 mm
11:50 AM 70.0°F21.1°C 41.0°F5.0°C 35% 2.9 mph N4.7 kmh N 4.0 mph6.4 kmh 29.99 in1015.6 mb 0.00 in0.0 mm 0.00 in/hr0.0 mm/hr 0.00 in0.0 mm
11:55 AM 70.4°F21.3°C 40.5°F4.7°C 34% 3.5 mph NW5.6 kmh NW 4.0 mph6.4 kmh 29.98 in1015.2 mb 0.00 in0.0 mm 0.00 in/hr0.0 mm/hr 0.00 in0.0 mm
12:00 PM 70.7°F21.5°C 40.2°F4.6°C 33% 5.5 mph NE8.9 kmh NE 6.3 mph10.1 kmh 29.98 in1015.2 mb 0.00 in0.0 mm 0.00 in/hr0.0 mm/hr 0.00 in0.0 mm
12:05 PM 70.7°F21.5°C 39.3°F4.1°C 32% 4.0 mph NE6.4 kmh NE 9.8 mph15.8 kmh 29.98 in1015.2 mb 0.00 in0.0 mm 0.00 in/hr0.0 mm/hr 0.00 in0.0 mm
12:10 PM 71.5°F21.9°C 40.1°F4.5°C 32% 3.5 mph E5.6 kmh E 9.8 mph15.8 kmh 29.97 in1014.9 mb 0.00 in0.0 mm 0.00 in/hr0.0 mm/hr 0.00 in0.0 mm
12:15 PM 72.4°F22.4°C 41.5°F5.3°C 33% 1.8 mph ESE2.9 kmh ESE 4.7 mph7.6 kmh 29.97 in1014.9 mb 0.00 in0.0 mm 0.00 in/hr0.0 mm/hr 0.00 in0.0 mm
12:20 PM 73.1°F22.8°C 40.6°F4.8°C 31% 9.6 mph S15.4 kmh S 9.8 mph15.8 kmh 29.96 in1014.6 mb 0.00 in0.0 mm 0.00 in/hr0.0 mm/hr 0.00 in0.0 mm
12:25 PM 74.0°F23.3°C 38.6°F3.7°C 28% 17.1 mph SW27.5 kmh SW 19.5 mph31.4 kmh 29.96 in1014.6 mb 0.00 in0.0 mm 0.00 in/hr0.0 mm/hr 0.00 in0.0 mm
12:30 PM 74.2°F23.4°C 39.8°F4.3°C 29% 14.1 mph S22.7 kmh S 19.5 mph31.4 kmh 29.96 in1014.6 mb 0.00 in0.0 mm 0.00 in/hr0.0 mm/hr 0.00 in0.0 mm
12:35 PM 74.7°F23.7°C 38.3°F3.5°C 27% 15.1 mph S24.3 kmh S 18.8 mph30.3 kmh 29.96 in1014.6 mb 0.00 in0.0 mm 0.00 in/hr0.0 mm/hr 0.00 in0.0 mm
12:40 PM 74.9°F23.8°C 39.4°F4.1°C 28% 11.2 mph SSW18.0 kmh SSW 18.8 mph30.3 kmh 29.95 in1014.2 mb 0.00 in0.0 mm 0.00 in/hr0.0 mm/hr 0.00 in0.0 mm
12:45 PM 74.9°F23.8°C 37.4°F3.0°C 26% 17.0 mph S27.4 kmh S 20.8 mph33.5 kmh 29.95 in1014.2 mb 0.00 in0.0 mm 0.00 in/hr0.0 mm/hr 0.00 in0.0 mm
12:50 PM 74.9°F23.8°C 39.4°F4.1°C 28% 11.1 mph S17.9 kmh S 20.8 mph33.5 kmh 29.95 in1014.2 mb 0.00 in0.0 mm 0.00 in/hr0.0 mm/hr 0.00 in0.0 mm
12:55 PM 75.1°F23.9°C 37.5°F3.1°C 26% 14.8 mph S23.8 kmh S 17.9 mph28.8 kmh 29.95 in1014.2 mb 0.00 in0.0 mm 0.00 in/hr0.0 mm/hr 0.00 in0.0 mm
01:01 PM 75.2°F24.0°C 37.6°F3.1°C 26% 15.8 mph SSW25.4 kmh SSW 19.0 mph30.6 kmh 29.95 in1014.2 mb 0.00 in0.0 mm 0.00 in/hr0.0 mm/hr 0.00 in0.0 mm
01:06 PM 75.1°F23.9°C 38.5°F3.6°C 27% 13.4 mph SW21.6 kmh SW 19.0 mph30.6 kmh 29.94 in1013.9 mb 0.00 in0.0 mm 0.00 in/hr0.0 mm/hr 0.00 in0.0 mm
01:11 PM 75.2°F24.0°C 36.6°F2.6°C 25% 13.9 mph WSW22.4 kmh WSW 19.5 mph31.4 kmh 29.94 in1013.9 mb 0.00 in0.0 mm 0.00 in/hr0.0 mm/hr 0.00 in0.0 mm
01:16 PM 75.4°F24.1°C 36.8°F2.7°C 25% 14.5 mph SSW23.3 kmh SSW 19.5 mph31.4 kmh 29.94 in1013.9 mb 0.00 in0.0 mm 0.00 in/hr0.0 mm/hr 0.00 in0.0 mm
01:20 PM 75.6°F24.2°C 36.9°F2.7°C 25% 15.0 mph S24.1 kmh S 16.6 mph26.7 kmh 29.94 in1013.9 mb 0.00 in0.0 mm 0.00 in/hr0.0 mm/hr 0.00 in0.0 mm
01:25 PM 75.6°F24.2°C 36.9°F2.7°C 25% 13.3 mph S21.4 kmh S 18.1 mph29.1 kmh 29.94 in1013.9 mb 0.00 in0.0 mm 0.00 in/hr0.0 mm/hr 0.00 in0.0 mm
01:30 PM 75.8°F24.3°C 37.1°F2.8°C 25% 13.3 mph S21.4 kmh S 18.1 mph29.1 kmh 29.94 in1013.9 mb 0.00 in0.0 mm 0.00 in/hr0.0 mm/hr 0.00 in0.0 mm
01:35 PM 76.0°F24.4°C 36.2°F2.3°C 24% 19.5 mph SSW31.4 kmh SSW 24.4 mph39.3 kmh 29.94 in1013.9 mb 0.00 in0.0 mm 0.00 in/hr0.0 mm/hr 0.00 in0.0 mm
01:40 PM 76.0°F24.4°C 36.2°F2.3°C 24% 13.0 mph S20.9 kmh S 24.4 mph39.3 kmh 29.94 in1013.9 mb 0.00 in0.0 mm 0.00 in/hr0.0 mm/hr 0.00 in0.0 mm
01:45 PM 75.8°F24.3°C 36.1°F2.3°C 24% 15.9 mph SW25.6 kmh SW 19.2 mph30.9 kmh 29.94 in1013.9 mb 0.00 in0.0 mm 0.00 in/hr0.0 mm/hr 0.00 in0.0 mm
01:50 PM 76.0°F24.4°C 37.3°F2.9°C 25% 13.1 mph S21.1 kmh S 19.2 mph30.9 kmh 29.93 in1013.5 mb 0.00 in0.0 mm 0.00 in/hr0.0 mm/hr 0.00 in0.0 mm
01:55 PM 76.1°F24.5°C 36.4°F2.4°C 24% 18.2 mph S29.3 kmh S 19.7 mph31.7 kmh 29.93 in1013.5 mb 0.00 in0.0 mm 0.00 in/hr0.0 mm/hr 0.00 in0.0 mm
02:01 PM 76.1°F24.5°C 35.4°F1.9°C 23% 14.2 mph SSW22.9 kmh SSW 19.7 mph31.7 kmh 29.93 in1013.5 mb 0.00 in0.0 mm 0.00 in/hr0.0 mm/hr 0.00 in0.0 mm
02:06 PM 76.0°F24.4°C 36.2°F2.3°C 24% 16.8 mph S27.0 kmh S 18.6 mph29.9 kmh 29.93 in1013.5 mb 0.00 in0.0 mm 0.00 in/hr0.0 mm/hr 0.00 in0.0 mm
02:11 PM 76.0°F24.4°C 36.2°F2.3°C 24% 10.8 mph S17.4 kmh S 18.6 mph29.9 kmh 29.93 in1013.5 mb 0.00 in0.0 mm 0.00 in/hr0.0 mm/hr 0.00 in0.0 mm
02:16 PM 76.1°F24.5°C 36.4°F2.4°C 24% 12.9 mph SW20.8 kmh SW 16.3 mph26.2 kmh 29.92 in1013.2 mb 0.00 in0.0 mm 0.00 in/hr0.0 mm/hr 0.00 in0.0 mm
02:21 PM 76.3°F24.6°C 36.6°F2.6°C 24% 11.9 mph S19.2 kmh S 16.3 mph26.2 kmh 29.92 in1013.2 mb 0.00 in0.0 mm 0.00 in/hr0.0 mm/hr 0.00 in0.0 mm
02:26 PM 76.3°F24.6°C 36.6°F2.6°C 24% 15.9 mph S25.6 kmh S 17.7 mph28.5 kmh 29.92 in1013.2 mb 0.00 in0.0 mm 0.00 in/hr0.0 mm/hr 0.00 in0.0 mm
02:31 PM 76.3°F24.6°C 36.6°F2.6°C 24% 13.2 mph SW21.2 kmh SW 17.7 mph28.5 kmh 29.92 in1013.2 mb 0.00 in0.0 mm 0.00 in/hr0.0 mm/hr 0.00 in0.0 mm
02:36 PM 76.3°F24.6°C 36.6°F2.6°C 24% 11.8 mph S19.0 kmh S 13.6 mph21.9 kmh 29.92 in1013.2 mb 0.00 in0.0 mm 0.00 in/hr0.0 mm/hr 0.00 in0.0 mm
02:41 PM 76.1°F24.5°C 37.4°F3.0°C 25% 10.6 mph S17.1 kmh S 15.2 mph24.5 kmh 29.91 in1012.9 mb 0.00 in0.0 mm 0.00 in/hr0.0 mm/hr 0.00 in0.0 mm
02:46 PM 76.1°F24.5°C 37.4°F3.0°C 25% 9.3 mph S15.0 kmh S 15.2 mph24.5 kmh 29.91 in1012.9 mb 0.00 in0.0 mm 0.00 in/hr0.0 mm/hr 0.00 in0.0 mm
02:51 PM 76.1°F24.5°C 37.4°F3.0°C 25% 11.8 mph SSE19.0 kmh SSE 16.3 mph26.2 kmh 29.91 in1012.9 mb 0.00 in0.0 mm 0.00 in/hr0.0 mm/hr 0.00 in0.0 mm
02:56 PM 76.0°F24.4°C 37.3°F2.9°C 25% 11.4 mph S18.3 kmh S 21.7 mph34.9 kmh 29.91 in1012.9 mb 0.00 in0.0 mm 0.00 in/hr0.0 mm/hr 0.00 in0.0 mm
03:01 PM 75.8°F24.3°C 37.1°F2.8°C 25% 9.8 mph SSW15.8 kmh SSW 21.7 mph34.9 kmh 29.91 in1012.9 mb 0.00 in0.0 mm 0.00 in/hr0.0 mm/hr 0.00 in0.0 mm
03:06 PM 76.0°F24.4°C 37.3°F2.9°C 25% 12.2 mph S19.6 kmh S 15.7 mph25.3 kmh 29.91 in1012.9 mb 0.00 in0.0 mm 0.00 in/hr0.0 mm/hr 0.00 in0.0 mm
03:11 PM 75.8°F24.3°C 36.1°F2.3°C 24% 14.0 mph S22.5 kmh S 15.9 mph25.6 kmh 29.91 in1012.9 mb 0.00 in0.0 mm 0.00 in/hr0.0 mm/hr 0.00 in0.0 mm
03:16 PM 75.6°F24.2°C 36.9°F2.7°C 25% 16.2 mph SSW26.1 kmh SSW 16.3 mph26.2 kmh 29.91 in1012.9 mb 0.00 in0.0 mm 0.00 in/hr0.0 mm/hr 0.00 in0.0 mm
03:21 PM 75.4°F24.1°C 35.7°F2.1°C 24% 12.4 mph SW20.0 kmh SW 16.3 mph26.2 kmh 29.91 in1012.9 mb 0.00 in0.0 mm 0.00 in/hr0.0 mm/hr 0.00 in0.0 mm
03:26 PM 75.6°F24.2°C 36.9°F2.7°C 25% 9.5 mph SSW15.3 kmh SSW 14.5 mph23.3 kmh 29.90 in1012.5 mb 0.00 in0.0 mm 0.00 in/hr0.0 mm/hr 0.00 in0.0 mm
03:31 PM 75.8°F24.3°C 36.1°F2.3°C 24% 12.3 mph S19.8 kmh S 13.9 mph22.4 kmh 29.90 in1012.5 mb 0.00 in0.0 mm 0.00 in/hr0.0 mm/hr 0.00 in0.0 mm
03:36 PM 75.6°F24.2°C 36.9°F2.7°C 25% 11.7 mph SW18.8 kmh SW 15.7 mph25.3 kmh 29.90 in1012.5 mb 0.00 in0.0 mm 0.00 in/hr0.0 mm/hr 0.00 in0.0 mm
03:41 PM 75.6°F24.2°C 36.9°F2.7°C 25% 9.7 mph SSE15.6 kmh SSE 15.7 mph25.3 kmh 29.90 in1012.5 mb 0.00 in0.0 mm 0.00 in/hr0.0 mm/hr 0.00 in0.0 mm
03:46 PM 75.6°F24.2°C 35.9°F2.2°C 24% 12.0 mph SSE19.3 kmh SSE 14.8 mph23.8 kmh 29.90 in1012.5 mb 0.00 in0.0 mm 0.00 in/hr0.0 mm/hr 0.00 in0.0 mm
03:51 PM 75.6°F24.2°C 36.9°F2.7°C 25% 9.6 mph SE15.4 kmh SE 14.8 mph23.8 kmh 29.89 in1012.2 mb 0.00 in0.0 mm 0.00 in/hr0.0 mm/hr 0.00 in0.0 mm
03:56 PM 75.8°F24.3°C 36.1°F2.3°C 24% 10.6 mph SSE17.1 kmh SSE 12.5 mph20.1 kmh 29.89 in1012.2 mb 0.00 in0.0 mm 0.00 in/hr0.0 mm/hr 0.00 in0.0 mm
04:00 PM 75.6°F24.2°C 35.9°F2.2°C 24% 9.9 mph S15.9 kmh S 15.0 mph24.1 kmh 29.89 in1012.2 mb 0.00 in0.0 mm 0.00 in/hr0.0 mm/hr 0.00 in0.0 mm
04:06 PM 75.6°F24.2°C 35.9°F2.2°C 24% 11.8 mph SSE19.0 kmh SSE 15.0 mph24.1 kmh 29.89 in1012.2 mb 0.00 in0.0 mm 0.00 in/hr0.0 mm/hr 0.00 in0.0 mm
04:11 PM 75.4°F24.1°C 35.7°F2.1°C 24% 14.3 mph S23.0 kmh S 17.9 mph28.8 kmh 29.89 in1012.2 mb 0.00 in0.0 mm 0.00 in/hr0.0 mm/hr 0.00 in0.0 mm
04:16 PM 75.2°F24.0°C 35.7°F2.1°C 24% 14.1 mph S22.7 kmh S 17.9 mph28.8 kmh 29.89 in1012.2 mb 0.00 in0.0 mm 0.00 in/hr0.0 mm/hr 0.00 in0.0 mm
04:21 PM 75.2°F24.0°C 35.7°F2.1°C 24% 13.3 mph SE21.4 kmh SE 16.8 mph27.0 kmh 29.88 in1011.9 mb 0.00 in0.0 mm 0.00 in/hr0.0 mm/hr 0.00 in0.0 mm
04:26 PM 75.2°F24.0°C 34.6°F1.4°C 23% 16.8 mph SE27.0 kmh SE 16.8 mph27.0 kmh 29.88 in1011.9 mb 0.00 in0.0 mm 0.00 in/hr0.0 mm/hr 0.00 in0.0 mm
04:31 PM 75.1°F23.9°C 34.5°F1.4°C 23% 8.8 mph S14.2 kmh S 16.8 mph27.0 kmh 29.88 in1011.9 mb 0.00 in0.0 mm 0.00 in/hr0.0 mm/hr 0.00 in0.0 mm
04:36 PM 74.9°F23.8°C 34.3°F1.3°C 23% 11.9 mph SSE19.2 kmh SSE 18.6 mph29.9 kmh 29.88 in1011.9 mb 0.00 in0.0 mm 0.00 in/hr0.0 mm/hr 0.00 in0.0 mm
04:41 PM 74.5°F23.6°C 34.0°F1.1°C 23% 11.1 mph SSW17.9 kmh SSW 18.6 mph29.9 kmh 29.88 in1011.9 mb 0.00 in0.0 mm 0.00 in/hr0.0 mm/hr 0.00 in0.0 mm
04:46 PM 73.6°F23.1°C 33.2°F0.7°C 23% 12.2 mph S19.6 kmh S 15.0 mph24.1 kmh 29.88 in1011.9 mb 0.00 in0.0 mm 0.00 in/hr0.0 mm/hr 0.00 in0.0 mm
04:51 PM 73.1°F22.8°C 33.8°F1.0°C 24% 8.8 mph S14.2 kmh S 15.0 mph24.1 kmh 29.88 in1011.9 mb 0.00 in0.0 mm 0.00 in/hr0.0 mm/hr 0.00 in0.0 mm
04:56 PM 72.9°F22.7°C 33.7°F0.9°C 24% 8.9 mph S14.3 kmh S 12.1 mph19.5 kmh 29.87 in1011.5 mb 0.00 in0.0 mm 0.00 in/hr0.0 mm/hr 0.00 in0.0 mm
05:02 PM 72.4°F22.4°C 33.1°F0.6°C 24% 6.6 mph SSE10.6 kmh SSE 12.1 mph19.5 kmh 29.87 in1011.5 mb 0.00 in0.0 mm 0.00 in/hr0.0 mm/hr 0.00 in0.0 mm
05:07 PM 72.0°F22.2°C 32.9°F0.5°C 24% 5.9 mph SSE9.5 kmh SSE 8.5 mph13.7 kmh 29.87 in1011.5 mb 0.00 in0.0 mm 0.00 in/hr0.0 mm/hr 0.00 in0.0 mm
05:12 PM 71.6°F22.0°C 32.6°F0.3°C 24% 6.8 mph SE10.9 kmh SE 8.5 mph13.7 kmh 29.87 in1011.5 mb 0.00 in0.0 mm 0.00 in/hr0.0 mm/hr 0.00 in0.0 mm
05:17 PM 71.5°F21.9°C 33.4°F0.8°C 25% 5.3 mph SSE8.5 kmh SSE 8.5 mph13.7 kmh 29.87 in1011.5 mb 0.00 in0.0 mm 0.00 in/hr0.0 mm/hr 0.00 in0.0 mm
05:22 PM 71.1°F21.7°C 33.1°F0.6°C 25% 6.5 mph S10.5 kmh S 8.7 mph14.0 kmh 29.87 in1011.5 mb 0.00 in0.0 mm 0.00 in/hr0.0 mm/hr 0.00 in0.0 mm
05:27 PM 70.6°F21.4°C 32.7°F0.4°C 25% 7.5 mph SSE12.1 kmh SSE 9.4 mph15.1 kmh 29.86 in1011.2 mb 0.00 in0.0 mm 0.00 in/hr0.0 mm/hr 0.00 in0.0 mm
05:31 PM 70.2°F21.2°C 33.4°F0.8°C 26% 7.4 mph S11.9 kmh S 9.4 mph15.1 kmh 29.86 in1011.2 mb 0.00 in0.0 mm 0.00 in/hr0.0 mm/hr 0.00 in0.0 mm
05:36 PM 69.8°F21.0°C 33.0°F0.6°C 26% 6.9 mph SSE11.1 kmh SSE 11.6 mph18.7 kmh 29.86 in1011.2 mb 0.00 in0.0 mm 0.00 in/hr0.0 mm/hr 0.00 in0.0 mm
05:41 PM 69.5°F20.8°C 32.8°F0.4°C 26% 5.3 mph SSE8.5 kmh SSE 11.6 mph18.7 kmh 29.86 in1011.2 mb 0.00 in0.0 mm 0.00 in/hr0.0 mm/hr 0.00 in0.0 mm
05:46 PM 69.3°F20.7°C 32.6°F0.3°C 26% 5.3 mph SE8.5 kmh SE 7.6 mph12.2 kmh 29.86 in1011.2 mb 0.00 in0.0 mm 0.00 in/hr0.0 mm/hr 0.00 in0.0 mm
05:51 PM 69.1°F20.6°C 32.4°F0.2°C 26% 4.1 mph SE6.6 kmh SE 7.6 mph12.2 kmh 29.86 in1011.2 mb 0.00 in0.0 mm 0.00 in/hr0.0 mm/hr 0.00 in0.0 mm
05:56 PM 68.8°F20.4°C 33.1°F0.6°C 27% 5.0 mph SE8.0 kmh SE 7.6 mph12.2 kmh 29.86 in1011.2 mb 0.00 in0.0 mm 0.00 in/hr0.0 mm/hr 0.00 in0.0 mm
06:02 PM 68.2°F20.1°C 33.7°F0.9°C 28% 5.3 mph SE8.5 kmh SE 6.3 mph10.1 kmh 29.86 in1011.2 mb 0.00 in0.0 mm 0.00 in/hr0.0 mm/hr 0.00 in0.0 mm
06:07 PM 67.7°F19.8°C 33.2°F0.7°C 28% 6.1 mph SE9.8 kmh SE 6.9 mph11.1 kmh 29.86 in1011.2 mb 0.00 in0.0 mm 0.00 in/hr0.0 mm/hr 0.00 in0.0 mm
06:12 PM 67.3°F19.6°C 33.9°F1.1°C 29% 5.4 mph SE8.7 kmh SE 7.6 mph12.2 kmh 29.86 in1011.2 mb 0.00 in0.0 mm 0.00 in/hr0.0 mm/hr 0.00 in0.0 mm
06:17 PM 66.8°F19.3°C 34.5°F1.4°C 30% 6.9 mph SE11.1 kmh SE 7.6 mph12.2 kmh 29.86 in1011.2 mb 0.00 in0.0 mm 0.00 in/hr0.0 mm/hr 0.00 in0.0 mm
06:22 PM 66.2°F19.0°C 34.7°F1.5°C 31% 8.7 mph SE14.0 kmh SE 8.9 mph14.3 kmh 29.86 in1011.2 mb 0.00 in0.0 mm 0.00 in/hr0.0 mm/hr 0.00 in0.0 mm
06:27 PM 65.9°F18.8°C 34.4°F1.3°C 31% 8.1 mph SE13.0 kmh SE 8.9 mph14.3 kmh 29.86 in1011.2 mb 0.00 in0.0 mm 0.00 in/hr0.0 mm/hr 0.00 in0.0 mm
06:32 PM 65.5°F18.6°C 34.1°F1.2°C 31% 6.6 mph SE10.6 kmh SE 9.6 mph15.4 kmh 29.86 in1011.2 mb 0.00 in0.0 mm 0.00 in/hr0.0 mm/hr 0.00 in0.0 mm
06:37 PM 65.5°F18.6°C 34.1°F1.2°C 31% 6.3 mph SE10.1 kmh SE 9.6 mph15.4 kmh 29.86 in1011.2 mb 0.00 in0.0 mm 0.00 in/hr0.0 mm/hr 0.00 in0.0 mm
06:42 PM 65.3°F18.5°C 34.7°F1.5°C 32% 8.7 mph SSE14.0 kmh SSE 11.4 mph18.3 kmh 29.86 in1011.2 mb 0.00 in0.0 mm 0.00 in/hr0.0 mm/hr 0.00 in0.0 mm
06:47 PM 65.3°F18.5°C 34.7°F1.5°C 32% 9.4 mph SSE15.1 kmh SSE 12.1 mph19.5 kmh 29.86 in1011.2 mb 0.00 in0.0 mm 0.00 in/hr0.0 mm/hr 0.00 in0.0 mm
06:52 PM 65.5°F18.6°C 34.8°F1.6°C 32% 11.2 mph SE18.0 kmh SE 13.6 mph21.9 kmh 29.86 in1011.2 mb 0.00 in0.0 mm 0.00 in/hr0.0 mm/hr 0.00 in0.0 mm
06:57 PM 65.5°F18.6°C 35.6°F2.0°C 33% 11.5 mph S18.5 kmh S 13.6 mph21.9 kmh 29.86 in1011.2 mb 0.00 in0.0 mm 0.00 in/hr0.0 mm/hr 0.00 in0.0 mm
07:02 PM 65.5°F18.6°C 35.6°F2.0°C 33% 14.6 mph S23.5 kmh S 15.7 mph25.3 kmh 29.86 in1011.2 mb 0.00 in0.0 mm 0.00 in/hr0.0 mm/hr 0.00 in0.0 mm
07:07 PM 65.9°F18.8°C 36.5°F2.5°C 34% 13.7 mph S22.0 kmh S 17.2 mph27.7 kmh 29.86 in1011.2 mb 0.00 in0.0 mm 0.00 in/hr0.0 mm/hr 0.00 in0.0 mm
07:12 PM 65.9°F18.8°C 37.3°F2.9°C 35% 16.7 mph SW26.9 kmh SW 18.6 mph29.9 kmh 29.86 in1011.2 mb 0.00 in0.0 mm 0.00 in/hr0.0 mm/hr 0.00 in0.0 mm
07:17 PM 66.1°F18.9°C 37.4°F3.0°C 35% 11.0 mph S17.7 kmh S 18.6 mph29.9 kmh 29.86 in1011.2 mb 0.00 in0.0 mm 0.00 in/hr0.0 mm/hr 0.00 in0.0 mm
07:22 PM 65.9°F18.8°C 36.5°F2.5°C 34% 12.3 mph S19.8 kmh S 18.6 mph29.9 kmh 29.86 in1011.2 mb 0.00 in0.0 mm 0.00 in/hr0.0 mm/hr 0.00 in0.0 mm
07:27 PM 65.5°F18.6°C 36.3°F2.4°C 34% 14.4 mph S23.2 kmh S 15.0 mph24.1 kmh 29.86 in1011.2 mb 0.00 in0.0 mm 0.00 in/hr0.0 mm/hr 0.00 in0.0 mm
07:32 PM 65.5°F18.6°C 35.6°F2.0°C 33% 10.0 mph SE16.1 kmh SE 15.0 mph24.1 kmh 29.86 in1011.2 mb 0.00 in0.0 mm 0.00 in/hr0.0 mm/hr 0.00 in0.0 mm
07:37 PM 65.5°F18.6°C 35.6°F2.0°C 33% 15.4 mph SSE24.8 kmh SSE 17.4 mph28.0 kmh 29.86 in1011.2 mb 0.00 in0.0 mm 0.00 in/hr0.0 mm/hr 0.00 in0.0 mm
07:42 PM 65.5°F18.6°C 35.6°F2.0°C 33% 12.3 mph S19.8 kmh S 18.8 mph30.3 kmh 29.85 in1010.8 mb 0.00 in0.0 mm 0.00 in/hr0.0 mm/hr 0.00 in0.0 mm
07:47 PM 65.5°F18.6°C 35.6°F2.0°C 33% 11.6 mph SSE18.7 kmh SSE 18.8 mph30.3 kmh 29.86 in1011.2 mb 0.00 in0.0 mm 0.00 in/hr0.0 mm/hr 0.00 in0.0 mm
07:52 PM 65.5°F18.6°C 35.6°F2.0°C 33% 12.5 mph SSE20.1 kmh SSE 13.4 mph21.6 kmh 29.85 in1010.8 mb 0.00 in0.0 mm 0.00 in/hr0.0 mm/hr 0.00 in0.0 mm
07:57 PM 65.5°F18.6°C 35.6°F2.0°C 33% 7.7 mph SSE12.4 kmh SSE 13.4 mph21.6 kmh 29.85 in1010.8 mb 0.00 in0.0 mm 0.00 in/hr0.0 mm/hr 0.00 in0.0 mm
08:03 PM 65.3°F18.5°C 35.4°F1.9°C 33% 8.7 mph SSE14.0 kmh SSE 11.6 mph18.7 kmh 29.85 in1010.8 mb 0.00 in0.0 mm 0.00 in/hr0.0 mm/hr 0.00 in0.0 mm
08:08 PM 65.3°F18.5°C 35.4°F1.9°C 33% 8.5 mph S13.7 kmh S 15.0 mph24.1 kmh 29.85 in1010.8 mb 0.00 in0.0 mm 0.00 in/hr0.0 mm/hr 0.00 in0.0 mm
08:13 PM 65.3°F18.5°C 35.4°F1.9°C 33% 9.8 mph S15.8 kmh S 15.0 mph24.1 kmh 29.85 in1010.8 mb 0.00 in0.0 mm 0.00 in/hr0.0 mm/hr 0.00 in0.0 mm
08:18 PM 65.5°F18.6°C 35.6°F2.0°C 33% 13.6 mph SSE21.9 kmh SSE 14.3 mph23.0 kmh 29.85 in1010.8 mb 0.00 in0.0 mm 0.00 in/hr0.0 mm/hr 0.00 in0.0 mm
08:23 PM 65.5°F18.6°C 35.6°F2.0°C 33% 8.6 mph SSE13.8 kmh SSE 14.3 mph23.0 kmh 29.85 in1010.8 mb 0.00 in0.0 mm 0.00 in/hr0.0 mm/hr 0.00 in0.0 mm
08:28 PM 65.3°F18.5°C 35.4°F1.9°C 33% 11.9 mph SSE19.2 kmh SSE 13.4 mph21.6 kmh 29.85 in1010.8 mb 0.00 in0.0 mm 0.00 in/hr0.0 mm/hr 0.00 in0.0 mm
08:32 PM 65.3°F18.5°C 35.4°F1.9°C 33% 12.2 mph SE19.6 kmh SE 13.9 mph22.4 kmh 29.85 in1010.8 mb 0.00 in0.0 mm 0.00 in/hr0.0 mm/hr 0.00 in0.0 mm
08:37 PM 65.3°F18.5°C 35.4°F1.9°C 33% 15.8 mph S25.4 kmh S 16.6 mph26.7 kmh 29.85 in1010.8 mb 0.00 in0.0 mm 0.00 in/hr0.0 mm/hr 0.00 in0.0 mm
08:42 PM 65.7°F18.7°C 35.7°F2.1°C 33% 14.1 mph S22.7 kmh S 18.8 mph30.3 kmh 29.85 in1010.8 mb 0.00 in0.0 mm 0.00 in/hr0.0 mm/hr 0.00 in0.0 mm
08:47 PM 65.9°F18.8°C 35.8°F2.1°C 33% 17.3 mph S27.8 kmh S 18.8 mph30.3 kmh 29.85 in1010.8 mb 0.00 in0.0 mm 0.00 in/hr0.0 mm/hr 0.00 in0.0 mm
08:52 PM 66.1°F18.9°C 36.0°F2.2°C 33% 18.5 mph S29.8 kmh S 23.9 mph38.5 kmh 29.85 in1010.8 mb 0.00 in0.0 mm 0.00 in/hr0.0 mm/hr 0.00 in0.0 mm
08:57 PM 66.1°F18.9°C 36.0°F2.2°C 33% 18.9 mph S30.4 kmh S 23.9 mph38.5 kmh 29.86 in1011.2 mb 0.00 in0.0 mm 0.00 in/hr0.0 mm/hr 0.00 in0.0 mm
09:03 PM 65.9°F18.8°C 35.8°F2.1°C 33% 12.6 mph S20.3 kmh S 22.1 mph35.6 kmh 29.86 in1011.2 mb 0.00 in0.0 mm 0.00 in/hr0.0 mm/hr 0.00 in0.0 mm
09:08 PM 65.7°F18.7°C 35.0°F1.7°C 32% 18.4 mph S29.6 kmh S 20.1 mph32.3 kmh 29.86 in1011.2 mb 0.00 in0.0 mm 0.00 in/hr0.0 mm/hr 0.00 in0.0 mm
09:13 PM 65.7°F18.7°C 35.0°F1.7°C 32% 17.9 mph S28.8 kmh S 20.1 mph32.3 kmh 29.85 in1010.8 mb 0.00 in0.0 mm 0.00 in/hr0.0 mm/hr 0.00 in0.0 mm
09:18 PM 65.9°F18.8°C 35.8°F2.1°C 33% 22.3 mph S35.9 kmh S 22.8 mph36.7 kmh 29.85 in1010.8 mb 0.00 in0.0 mm 0.00 in/hr0.0 mm/hr 0.00 in0.0 mm
09:23 PM 65.9°F18.8°C 35.8°F2.1°C 33% 18.8 mph S30.3 kmh S 23.0 mph37.0 kmh 29.85 in1010.8 mb 0.00 in0.0 mm 0.00 in/hr0.0 mm/hr 0.00 in0.0 mm
09:28 PM 65.9°F18.8°C 35.1°F1.7°C 32% 17.3 mph S27.8 kmh S 23.0 mph37.0 kmh 29.85 in1010.8 mb 0.00 in0.0 mm 0.00 in/hr0.0 mm/hr 0.00 in0.0 mm
09:33 PM 65.7°F18.7°C 35.0°F1.7°C 32% 18.0 mph S29.0 kmh S 21.5 mph34.6 kmh 29.85 in1010.8 mb 0.00 in0.0 mm 0.00 in/hr0.0 mm/hr 0.00 in0.0 mm
09:38 PM 65.3°F18.5°C 34.7°F1.5°C 32% 16.6 mph S26.7 kmh S 21.5 mph34.6 kmh 29.85 in1010.8 mb 0.00 in0.0 mm 0.00 in/hr0.0 mm/hr 0.00 in0.0 mm
09:43 PM 65.2°F18.4°C 34.5°F1.4°C 32% 19.9 mph S32.0 kmh S 21.5 mph34.6 kmh 29.85 in1010.8 mb 0.00 in0.0 mm 0.00 in/hr0.0 mm/hr 0.00 in0.0 mm
09:48 PM 65.0°F18.3°C 33.6°F0.9°C 31% 19.8 mph S31.9 kmh S 23.5 mph37.8 kmh 29.85 in1010.8 mb 0.00 in0.0 mm 0.00 in/hr0.0 mm/hr 0.00 in0.0 mm
09:53 PM 64.8°F18.2°C 33.5°F0.8°C 31% 19.1 mph S30.7 kmh S 25.7 mph41.4 kmh 29.85 in1010.8 mb 0.00 in0.0 mm 0.00 in/hr0.0 mm/hr 0.00 in0.0 mm
09:58 PM 64.8°F18.2°C 33.5°F0.8°C 31% 16.1 mph S25.9 kmh S 27.3 mph43.9 kmh 29.85 in1010.8 mb 0.00 in0.0 mm 0.00 in/hr0.0 mm/hr 0.00 in0.0 mm
10:03 PM 64.8°F18.2°C 33.5°F0.8°C 31% 21.0 mph SSW33.8 kmh SSW 27.3 mph43.9 kmh 29.85 in1010.8 mb 0.00 in0.0 mm 0.00 in/hr0.0 mm/hr 0.00 in0.0 mm
10:08 PM 64.6°F18.1°C 33.3°F0.7°C 31% 17.0 mph S27.4 kmh S 25.9 mph41.7 kmh 29.85 in1010.8 mb 0.00 in0.0 mm 0.00 in/hr0.0 mm/hr 0.00 in0.0 mm
10:13 PM 64.6°F18.1°C 33.3°F0.7°C 31% 21.1 mph S34.0 kmh S 25.9 mph41.7 kmh 29.85 in1010.8 mb 0.00 in0.0 mm 0.00 in/hr0.0 mm/hr 0.00 in0.0 mm
10:18 PM 64.8°F18.2°C 33.5°F0.8°C 31% 21.5 mph S34.6 kmh S 28.9 mph46.5 kmh 29.85 in1010.8 mb 0.00 in0.0 mm 0.00 in/hr0.0 mm/hr 0.00 in0.0 mm
10:23 PM 64.8°F18.2°C 33.5°F0.8°C 31% 20.7 mph S33.3 kmh S 28.9 mph46.5 kmh 29.84 in1010.5 mb 0.00 in0.0 mm 0.00 in/hr0.0 mm/hr 0.00 in0.0 mm
10:28 PM 64.8°F18.2°C 33.5°F0.8°C 31% 24.9 mph S40.1 kmh S 27.1 mph43.6 kmh 29.84 in1010.5 mb 0.00 in0.0 mm 0.00 in/hr0.0 mm/hr 0.00 in0.0 mm
10:33 PM 64.4°F18.0°C 33.1°F0.6°C 31% 20.8 mph S33.5 kmh S 27.1 mph43.6 kmh 29.84 in1010.5 mb 0.00 in0.0 mm 0.00 in/hr0.0 mm/hr 0.00 in0.0 mm
10:38 PM 64.3°F17.9°C 33.7°F0.9°C 32% 22.2 mph SSE35.7 kmh SSE 25.1 mph40.4 kmh 29.84 in1010.5 mb 0.00 in0.0 mm 0.00 in/hr0.0 mm/hr 0.00 in0.0 mm
10:43 PM 64.1°F17.8°C 33.5°F0.8°C 32% 17.0 mph SSE27.4 kmh SSE 28.2 mph45.4 kmh 29.84 in1010.5 mb 0.00 in0.0 mm 0.00 in/hr0.0 mm/hr 0.00 in0.0 mm
10:48 PM 64.1°F17.8°C 33.5°F0.8°C 32% 21.1 mph SSE34.0 kmh SSE 28.2 mph45.4 kmh 29.84 in1010.5 mb 0.00 in0.0 mm 0.00 in/hr0.0 mm/hr 0.00 in0.0 mm
10:53 PM 63.7°F17.6°C 33.2°F0.7°C 32% 16.3 mph SSE26.2 kmh SSE 23.3 mph37.5 kmh 29.84 in1010.5 mb 0.00 in0.0 mm 0.00 in/hr0.0 mm/hr 0.00 in0.0 mm
10:58 PM 63.5°F17.5°C 33.0°F0.6°C 32% 17.4 mph S28.0 kmh S 20.8 mph33.5 kmh 29.84 in1010.5 mb 0.00 in0.0 mm 0.00 in/hr0.0 mm/hr 0.00 in0.0 mm
11:03 PM 63.2°F17.3°C 33.4°F0.8°C 33% 14.2 mph S22.9 kmh S 23.0 mph37.0 kmh 29.84 in1010.5 mb 0.00 in0.0 mm 0.00 in/hr0.0 mm/hr 0.00 in0.0 mm
11:08 PM 63.0°F17.2°C 33.3°F0.7°C 33% 17.1 mph SSE27.5 kmh SSE 23.0 mph37.0 kmh 29.84 in1010.5 mb 0.00 in0.0 mm 0.00 in/hr0.0 mm/hr 0.00 in0.0 mm
11:13 PM 63.0°F17.2°C 34.0°F1.1°C 34% 16.9 mph S27.2 kmh S 23.0 mph37.0 kmh 29.85 in1010.8 mb 0.00 in0.0 mm 0.00 in/hr0.0 mm/hr 0.00 in0.0 mm
11:18 PM 63.2°F17.3°C 33.4°F0.8°C 33% 18.9 mph SW30.4 kmh SW 23.0 mph37.0 kmh 29.85 in1010.8 mb 0.00 in0.0 mm 0.00 in/hr0.0 mm/hr 0.00 in0.0 mm
11:23 PM 63.2°F17.3°C 33.4°F0.8°C 33% 20.8 mph SSW33.5 kmh SSW 21.0 mph33.8 kmh 29.85 in1010.8 mb 0.00 in0.0 mm 0.00 in/hr0.0 mm/hr 0.00 in0.0 mm
11:28 PM 63.2°F17.3°C 34.1°F1.2°C 34% 21.0 mph SSW33.8 kmh SSW 28.4 mph45.7 kmh 29.85 in1010.8 mb 0.00 in0.0 mm 0.00 in/hr0.0 mm/hr 0.00 in0.0 mm
11:33 PM 63.2°F17.3°C 34.1°F1.2°C 34% 17.6 mph S28.3 kmh S 28.4 mph45.7 kmh 29.84 in1010.5 mb 0.00 in0.0 mm 0.00 in/hr0.0 mm/hr 0.00 in0.0 mm
11:38 PM 63.0°F17.2°C 34.0°F1.1°C 34% 21.7 mph S34.9 kmh S 26.6 mph42.8 kmh 29.85 in1010.8 mb 0.00 in0.0 mm 0.00 in/hr0.0 mm/hr 0.00 in0.0 mm
11:43 PM 63.0°F17.2°C 34.0°F1.1°C 34% 24.8 mph S39.9 kmh S 28.0 mph45.1 kmh 29.84 in1010.5 mb 0.00 in0.0 mm 0.00 in/hr0.0 mm/hr 0.00 in0.0 mm
11:48 PM 63.0°F17.2°C 34.0°F1.1°C 34% 21.2 mph S34.1 kmh S 28.0 mph45.1 kmh 29.84 in1010.5 mb 0.00 in0.0 mm 0.00 in/hr0.0 mm/hr 0.00 in0.0 mm
11:53 PM 63.0°F17.2°C 34.0°F1.1°C 34% 25.6 mph S41.2 kmh S 27.3 mph43.9 kmh 29.84 in1010.5 mb 0.00 in0.0 mm 0.00 in/hr0.0 mm/hr 0.00 in0.0 mm
11:58 PM 63.0°F17.2°C 34.0°F1.1°C 34% 21.6 mph S34.8 kmh S 32.0 mph51.5 kmh 29.84 in1010.5 mb 0.00 in0.0 mm 0.00 in/hr0.0 mm/hr 0.00 in0.0 mm